sensor_id;sensor_type;location;lat;lon;timestamp;temperature;humidity
14119;DHT22;7138;49.246;9.100;2022-10-16T00:00:01;15.00;99.90
14119;DHT22;7138;49.246;9.100;2022-10-16T00:02:26;15.00;99.90
14119;DHT22;7138;49.246;9.100;2022-10-16T00:04:52;15.00;99.90
14119;DHT22;7138;49.246;9.100;2022-10-16T00:07:20;15.00;99.90
14119;DHT22;7138;49.246;9.100;2022-10-16T00:09:47;14.90;99.90
14119;DHT22;7138;49.246;9.100;2022-10-16T00:12:13;14.90;99.90
14119;DHT22;7138;49.246;9.100;2022-10-16T00:14:39;14.90;99.90
14119;DHT22;7138;49.246;9.100;2022-10-16T00:17:08;14.90;99.90
14119;DHT22;7138;49.246;9.100;2022-10-16T00:19:34;14.80;99.90
14119;DHT22;7138;49.246;9.100;2022-10-16T00:21:59;14.80;99.90
14119;DHT22;7138;49.246;9.100;2022-10-16T00:24:25;14.80;99.90
14119;DHT22;7138;49.246;9.100;2022-10-16T00:26:53;14.80;99.90
14119;DHT22;7138;49.246;9.100;2022-10-16T00:29:18;14.80;99.90
14119;DHT22;7138;49.246;9.100;2022-10-16T00:31:44;14.80;99.90
14119;DHT22;7138;49.246;9.100;2022-10-16T00:34:10;14.80;99.90
14119;DHT22;7138;49.246;9.100;2022-10-16T00:36:36;14.80;99.90
14119;DHT22;7138;49.246;9.100;2022-10-16T00:39:03;14.80;99.90
14119;DHT22;7138;49.246;9.100;2022-10-16T00:41:29;14.90;99.90
14119;DHT22;7138;49.246;9.100;2022-10-16T00:43:58;14.90;99.90
14119;DHT22;7138;49.246;9.100;2022-10-16T00:46:28;14.90;99.90
14119;DHT22;7138;49.246;9.100;2022-10-16T00:49:03;14.90;99.90
14119;DHT22;7138;49.246;9.100;2022-10-16T00:51:33;14.90;99.90
14119;DHT22;7138;49.246;9.100;2022-10-16T00:54:04;14.90;99.90
14119;DHT22;7138;49.246;9.100;2022-10-16T00:56:35;14.90;99.90
14119;DHT22;7138;49.246;9.100;2022-10-16T00:59:03;14.90;99.90
14119;DHT22;7138;49.246;9.100;2022-10-16T01:01:37;14.90;99.90
14119;DHT22;7138;49.246;9.100;2022-10-16T01:04:03;14.90;99.90
14119;DHT22;7138;49.246;9.100;2022-10-16T01:06:32;14.90;99.90
14119;DHT22;7138;49.246;9.100;2022-10-16T01:09:18;14.90;99.90
14119;DHT22;7138;49.246;9.100;2022-10-16T01:11:57;14.90;99.90
14119;DHT22;7138;49.246;9.100;2022-10-16T01:14:42;14.90;99.90
14119;DHT22;7138;49.246;9.100;2022-10-16T01:17:16;14.90;99.90
14119;DHT22;7138;49.246;9.100;2022-10-16T01:20:00;14.90;99.90
14119;DHT22;7138;49.246;9.100;2022-10-16T01:22:38;14.90;99.90
14119;DHT22;7138;49.246;9.100;2022-10-16T01:25:21;14.90;99.90
14119;DHT22;7138;49.246;9.100;2022-10-16T01:27:57;15.00;99.90
14119;DHT22;7138;49.246;9.100;2022-10-16T01:30:30;15.00;99.90
14119;DHT22;7138;49.246;9.100;2022-10-16T01:33:02;15.00;99.90
14119;DHT22;7138;49.246;9.100;2022-10-16T01:35:36;15.00;99.90
14119;DHT22;7138;49.246;9.100;2022-10-16T01:38:11;15.00;99.90
14119;DHT22;7138;49.246;9.100;2022-10-16T01:40:45;15.00;99.90
14119;DHT22;7138;49.246;9.100;2022-10-16T01:43:19;15.00;99.90
14119;DHT22;7138;49.246;9.100;2022-10-16T01:45:51;15.00;99.90
14119;DHT22;7138;49.246;9.100;2022-10-16T01:48:19;15.00;99.90
14119;DHT22;7138;49.246;9.100;2022-10-16T01:50:50;15.00;99.90
14119;DHT22;7138;49.246;9.100;2022-10-16T01:53:20;15.00;99.90
14119;DHT22;7138;49.246;9.100;2022-10-16T01:55:48;15.00;99.90
14119;DHT22;7138;49.246;9.100;2022-10-16T01:58:18;15.00;99.90
14119;DHT22;7138;49.246;9.100;2022-10-16T02:00:45;15.00;99.90
14119;DHT22;7138;49.246;9.100;2022-10-16T02:03:15;15.00;99.90
14119;DHT22;7138;49.246;9.100;2022-10-16T02:05:47;15.00;99.90
14119;DHT22;7138;49.246;9.100;2022-10-16T02:08:16;15.00;99.90
14119;DHT22;7138;49.246;9.100;2022-10-16T02:10:43;15.00;99.90
14119;DHT22;7138;49.246;9.100;2022-10-16T02:13:11;15.00;99.90
14119;DHT22;7138;49.246;9.100;2022-10-16T02:15:43;15.00;99.90
14119;DHT22;7138;49.246;9.100;2022-10-16T02:18:09;15.00;99.90
14119;DHT22;7138;49.246;9.100;2022-10-16T02:20:43;15.00;99.90
14119;DHT22;7138;49.246;9.100;2022-10-16T02:23:23;15.00;99.90
14119;DHT22;7138;49.246;9.100;2022-10-16T02:25:54;15.00;99.90
14119;DHT22;7138;49.246;9.100;2022-10-16T02:28:26;15.00;99.90
14119;DHT22;7138;49.246;9.100;2022-10-16T02:30:59;15.00;99.90
14119;DHT22;7138;49.246;9.100;2022-10-16T02:33:29;15.00;99.90
14119;DHT22;7138;49.246;9.100;2022-10-16T02:35:57;15.00;99.90
14119;DHT22;7138;49.246;9.100;2022-10-16T02:38:24;15.00;99.90
14119;DHT22;7138;49.246;9.100;2022-10-16T02:40:51;15.00;99.90
14119;DHT22;7138;49.246;9.100;2022-10-16T02:43:18;15.10;99.90
14119;DHT22;7138;49.246;9.100;2022-10-16T02:45:44;15.00;99.90
14119;DHT22;7138;49.246;9.100;2022-10-16T02:48:11;15.00;99.90
14119;DHT22;7138;49.246;9.100;2022-10-16T02:50:37;15.10;99.90
14119;DHT22;7138;49.246;9.100;2022-10-16T02:53:03;15.10;99.90
14119;DHT22;7138;49.246;9.100;2022-10-16T02:55:29;15.10;99.90
14119;DHT22;7138;49.246;9.100;2022-10-16T02:57:55;15.10;99.90
14119;DHT22;7138;49.246;9.100;2022-10-16T03:00:21;15.10;99.90
14119;DHT22;7138;49.246;9.100;2022-10-16T03:02:47;15.10;99.90
14119;DHT22;7138;49.246;9.100;2022-10-16T03:05:14;15.10;99.90
14119;DHT22;7138;49.246;9.100;2022-10-16T03:07:41;15.10;99.90
14119;DHT22;7138;49.246;9.100;2022-10-16T03:10:08;15.00;99.90
14119;DHT22;7138;49.246;9.100;2022-10-16T03:12:34;15.00;99.90
14119;DHT22;7138;49.246;9.100;2022-10-16T03:15:00;15.00;99.90
14119;DHT22;7138;49.246;9.100;2022-10-16T03:17:26;15.00;99.90
14119;DHT22;7138;49.246;9.100;2022-10-16T03:19:52;15.00;99.90
14119;DHT22;7138;49.246;9.100;2022-10-16T03:22:19;15.00;99.90
14119;DHT22;7138;49.246;9.100;2022-10-16T03:24:45;15.00;99.90
14119;DHT22;7138;49.246;9.100;2022-10-16T03:27:11;15.10;99.90
14119;DHT22;7138;49.246;9.100;2022-10-16T03:29:37;15.10;99.90
14119;DHT22;7138;49.246;9.100;2022-10-16T03:32:03;15.10;99.90
14119;DHT22;7138;49.246;9.100;2022-10-16T03:34:29;15.10;99.90
14119;DHT22;7138;49.246;9.100;2022-10-16T03:36:54;15.10;99.90
14119;DHT22;7138;49.246;9.100;2022-10-16T03:39:22;15.10;99.90
14119;DHT22;7138;49.246;9.100;2022-10-16T03:41:48;15.10;99.90
14119;DHT22;7138;49.246;9.100;2022-10-16T03:44:14;15.10;99.90
14119;DHT22;7138;49.246;9.100;2022-10-16T03:46:40;15.10;99.90
14119;DHT22;7138;49.246;9.100;2022-10-16T03:49:06;15.10;99.90
14119;DHT22;7138;49.246;9.100;2022-10-16T03:51:32;15.10;99.90
14119;DHT22;7138;49.246;9.100;2022-10-16T03:53:58;15.10;99.90
14119;DHT22;7138;49.246;9.100;2022-10-16T03:56:25;15.10;99.90
14119;DHT22;7138;49.246;9.100;2022-10-16T03:58:51;15.10;99.90
14119;DHT22;7138;49.246;9.100;2022-10-16T04:01:17;15.00;99.90
14119;DHT22;7138;49.246;9.100;2022-10-16T04:03:43;15.00;99.90
14119;DHT22;7138;49.246;9.100;2022-10-16T04:06:09;15.00;99.90
14119;DHT22;7138;49.246;9.100;2022-10-16T04:08:35;15.00;99.90
14119;DHT22;7138;49.246;9.100;2022-10-16T04:11:02;15.10;99.90
14119;DHT22;7138;49.246;9.100;2022-10-16T04:13:30;15.10;99.90
14119;DHT22;7138;49.246;9.100;2022-10-16T04:15:56;15.10;99.90
14119;DHT22;7138;49.246;9.100;2022-10-16T04:18:22;15.10;99.90
14119;DHT22;7138;49.246;9.100;2022-10-16T04:20:48;15.10;99.90
14119;DHT22;7138;49.246;9.100;2022-10-16T04:23:14;15.10;99.90
14119;DHT22;7138;49.246;9.100;2022-10-16T04:25:40;15.10;99.90
14119;DHT22;7138;49.246;9.100;2022-10-16T04:28:06;15.00;99.90
14119;DHT22;7138;49.246;9.100;2022-10-16T04:30:33;15.10;99.90
14119;DHT22;7138;49.246;9.100;2022-10-16T04:32:59;15.10;99.90
14119;DHT22;7138;49.246;9.100;2022-10-16T04:35:25;15.10;99.90
14119;DHT22;7138;49.246;9.100;2022-10-16T04:37:51;15.10;99.90
14119;DHT22;7138;49.246;9.100;2022-10-16T04:40:17;15.00;99.90
14119;DHT22;7138;49.246;9.100;2022-10-16T04:42:43;15.10;99.90
14119;DHT22;7138;49.246;9.100;2022-10-16T04:45:09;15.10;99.90
14119;DHT22;7138;49.246;9.100;2022-10-16T04:47:36;15.10;99.90
14119;DHT22;7138;49.246;9.100;2022-10-16T04:50:03;15.10;99.90
14119;DHT22;7138;49.246;9.100;2022-10-16T04:52:29;15.10;99.90
14119;DHT22;7138;49.246;9.100;2022-10-16T04:54:57;15.10;99.90
14119;DHT22;7138;49.246;9.100;2022-10-16T04:57:26;15.10;99.90
14119;DHT22;7138;49.246;9.100;2022-10-16T04:59:52;15.10;99.90
14119;DHT22;7138;49.246;9.100;2022-10-16T05:02:18;15.10;99.90
14119;DHT22;7138;49.246;9.100;2022-10-16T05:04:45;15.10;99.90
14119;DHT22;7138;49.246;9.100;2022-10-16T05:07:11;15.10;99.90
14119;DHT22;7138;49.246;9.100;2022-10-16T05:09:37;15.10;99.90
14119;DHT22;7138;49.246;9.100;2022-10-16T05:12:03;15.10;99.90
14119;DHT22;7138;49.246;9.100;2022-10-16T05:14:29;15.10;99.90
14119;DHT22;7138;49.246;9.100;2022-10-16T05:16:55;15.10;99.90
14119;DHT22;7138;49.246;9.100;2022-10-16T05:19:21;15.00;99.90
14119;DHT22;7138;49.246;9.100;2022-10-16T05:21:48;15.00;99.90
14119;DHT22;7138;49.246;9.100;2022-10-16T05:24:14;15.10;99.90
14119;DHT22;7138;49.246;9.100;2022-10-16T05:26:40;15.10;99.90
14119;DHT22;7138;49.246;9.100;2022-10-16T05:29:06;15.10;99.90
14119;DHT22;7138;49.246;9.100;2022-10-16T05:31:32;15.10;99.90
14119;DHT22;7138;49.246;9.100;2022-10-16T05:33:58;15.10;99.90
14119;DHT22;7138;49.246;9.100;2022-10-16T05:36:25;15.00;99.90
14119;DHT22;7138;49.246;9.100;2022-10-16T05:38:52;15.00;99.90
14119;DHT22;7138;49.246;9.100;2022-10-16T05:41:19;15.00;99.90
14119;DHT22;7138;49.246;9.100;2022-10-16T05:43:47;15.00;99.90
14119;DHT22;7138;49.246;9.100;2022-10-16T05:46:13;15.00;99.90
14119;DHT22;7138;49.246;9.100;2022-10-16T05:48:40;14.90;99.90
14119;DHT22;7138;49.246;9.100;2022-10-16T05:51:07;14.90;99.90
14119;DHT22;7138;49.246;9.100;2022-10-16T05:53:37;15.00;99.90
14119;DHT22;7138;49.246;9.100;2022-10-16T05:56:06;14.90;99.90
14119;DHT22;7138;49.246;9.100;2022-10-16T05:58:35;15.00;99.90
14119;DHT22;7138;49.246;9.100;2022-10-16T06:01:04;14.90;99.90
14119;DHT22;7138;49.246;9.100;2022-10-16T06:03:32;14.90;99.90
14119;DHT22;7138;49.246;9.100;2022-10-16T06:05:59;14.90;99.90
14119;DHT22;7138;49.246;9.100;2022-10-16T06:08:25;14.90;99.90
14119;DHT22;7138;49.246;9.100;2022-10-16T06:11:00;14.90;99.90
14119;DHT22;7138;49.246;9.100;2022-10-16T06:13:28;14.90;99.90
14119;DHT22;7138;49.246;9.100;2022-10-16T06:15:57;15.00;99.90
14119;DHT22;7138;49.246;9.100;2022-10-16T06:18:23;15.00;99.90
14119;DHT22;7138;49.246;9.100;2022-10-16T06:20:49;15.00;99.90
14119;DHT22;7138;49.246;9.100;2022-10-16T06:23:15;15.00;99.90
14119;DHT22;7138;49.246;9.100;2022-10-16T06:25:41;15.00;99.90
14119;DHT22;7138;49.246;9.100;2022-10-16T06:28:07;15.00;99.90
14119;DHT22;7138;49.246;9.100;2022-10-16T06:30:34;15.00;99.90
14119;DHT22;7138;49.246;9.100;2022-10-16T06:33:00;15.20;99.90
14119;DHT22;7138;49.246;9.100;2022-10-16T06:35:26;15.10;99.90
14119;DHT22;7138;49.246;9.100;2022-10-16T06:37:52;15.10;99.90
14119;DHT22;7138;49.246;9.100;2022-10-16T06:40:18;15.30;99.90
14119;DHT22;7138;49.246;9.100;2022-10-16T06:42:44;15.30;99.90
14119;DHT22;7138;49.246;9.100;2022-10-16T06:45:10;15.30;99.90
14119;DHT22;7138;49.246;9.100;2022-10-16T06:47:37;15.30;99.90
14119;DHT22;7138;49.246;9.100;2022-10-16T06:50:05;15.30;99.90
14119;DHT22;7138;49.246;9.100;2022-10-16T06:52:32;15.30;99.90
14119;DHT22;7138;49.246;9.100;2022-10-16T06:54:59;15.40;99.90
14119;DHT22;7138;49.246;9.100;2022-10-16T06:57:25;15.40;99.90
14119;DHT22;7138;49.246;9.100;2022-10-16T06:59:51;15.30;99.90
14119;DHT22;7138;49.246;9.100;2022-10-16T07:02:17;15.30;99.90
14119;DHT22;7138;49.246;9.100;2022-10-16T07:04:44;15.30;99.90
14119;DHT22;7138;49.246;9.100;2022-10-16T07:07:10;15.30;99.90
14119;DHT22;7138;49.246;9.100;2022-10-16T07:09:35;15.30;99.90
14119;DHT22;7138;49.246;9.100;2022-10-16T07:12:01;15.30;99.90
14119;DHT22;7138;49.246;9.100;2022-10-16T07:14:27;15.30;99.90
14119;DHT22;7138;49.246;9.100;2022-10-16T07:16:53;15.30;99.90
14119;DHT22;7138;49.246;9.100;2022-10-16T07:19:19;15.40;99.90
14119;DHT22;7138;49.246;9.100;2022-10-16T07:21:47;15.30;99.90
14119;DHT22;7138;49.246;9.100;2022-10-16T07:24:14;15.40;99.90
14119;DHT22;7138;49.246;9.100;2022-10-16T07:26:42;15.40;99.90
14119;DHT22;7138;49.246;9.100;2022-10-16T07:29:12;15.40;99.90
14119;DHT22;7138;49.246;9.100;2022-10-16T07:31:39;15.50;99.90
14119;DHT22;7138;49.246;9.100;2022-10-16T07:34:05;15.60;99.90
14119;DHT22;7138;49.246;9.100;2022-10-16T07:36:31;15.70;99.90
14119;DHT22;7138;49.246;9.100;2022-10-16T07:38:59;15.70;99.90
14119;DHT22;7138;49.246;9.100;2022-10-16T07:41:24;15.80;99.90
14119;DHT22;7138;49.246;9.100;2022-10-16T07:43:51;15.80;99.90
14119;DHT22;7138;49.246;9.100;2022-10-16T07:46:19;15.90;99.90
14119;DHT22;7138;49.246;9.100;2022-10-16T07:48:46;16.00;99.90
14119;DHT22;7138;49.246;9.100;2022-10-16T07:51:14;16.10;99.90
14119;DHT22;7138;49.246;9.100;2022-10-16T07:53:42;16.20;99.90
14119;DHT22;7138;49.246;9.100;2022-10-16T07:56:09;16.30;99.90
14119;DHT22;7138;49.246;9.100;2022-10-16T07:58:36;16.50;99.90
14119;DHT22;7138;49.246;9.100;2022-10-16T08:01:04;16.50;99.90
14119;DHT22;7138;49.246;9.100;2022-10-16T08:03:31;16.60;99.90
14119;DHT22;7138;49.246;9.100;2022-10-16T08:05:57;16.70;99.90
14119;DHT22;7138;49.246;9.100;2022-10-16T08:08:24;16.80;99.90
14119;DHT22;7138;49.246;9.100;2022-10-16T08:10:50;16.80;99.90
14119;DHT22;7138;49.246;9.100;2022-10-16T08:13:17;16.80;99.90
14119;DHT22;7138;49.246;9.100;2022-10-16T08:15:43;16.90;99.90
14119;DHT22;7138;49.246;9.100;2022-10-16T08:18:11;17.10;99.90
14119;DHT22;7138;49.246;9.100;2022-10-16T08:20:38;17.20;99.90
14119;DHT22;7138;49.246;9.100;2022-10-16T08:23:07;17.20;99.90
14119;DHT22;7138;49.246;9.100;2022-10-16T08:25:35;17.10;99.90
14119;DHT22;7138;49.246;9.100;2022-10-16T08:28:03;17.10;99.90
14119;DHT22;7138;49.246;9.100;2022-10-16T08:30:31;17.10;99.90
14119;DHT22;7138;49.246;9.100;2022-10-16T08:32:57;17.10;99.90
14119;DHT22;7138;49.246;9.100;2022-10-16T08:35:23;17.20;99.90
14119;DHT22;7138;49.246;9.100;2022-10-16T08:37:49;17.20;99.90
14119;DHT22;7138;49.246;9.100;2022-10-16T08:40:18;17.20;99.90
14119;DHT22;7138;49.246;9.100;2022-10-16T08:46:07;17.30;99.90
14119;DHT22;7138;49.246;9.100;2022-10-16T08:48:46;17.60;99.90
14119;DHT22;7138;49.246;9.100;2022-10-16T08:51:20;17.80;99.90
14119;DHT22;7138;49.246;9.100;2022-10-16T08:53:52;18.00;99.90
14119;DHT22;7138;49.246;9.100;2022-10-16T08:56:21;18.10;99.90
14119;DHT22;7138;49.246;9.100;2022-10-16T08:58:48;18.10;99.90
14119;DHT22;7138;49.246;9.100;2022-10-16T09:01:18;18.10;99.90
14119;DHT22;7138;49.246;9.100;2022-10-16T09:06:59;18.40;99.90
14119;DHT22;7138;49.246;9.100;2022-10-16T09:09:43;18.40;99.90
14119;DHT22;7138;49.246;9.100;2022-10-16T09:12:28;18.60;99.90
14119;DHT22;7138;49.246;9.100;2022-10-16T09:15:05;18.50;99.90
14119;DHT22;7138;49.246;9.100;2022-10-16T09:17:48;18.70;99.90
14119;DHT22;7138;49.246;9.100;2022-10-16T09:20:26;18.80;99.90
14119;DHT22;7138;49.246;9.100;2022-10-16T09:23:12;18.90;99.90
14119;DHT22;7138;49.246;9.100;2022-10-16T09:25:43;18.90;99.90
14119;DHT22;7138;49.246;9.100;2022-10-16T09:28:11;18.90;99.90
14119;DHT22;7138;49.246;9.100;2022-10-16T09:30:37;18.80;99.90
14119;DHT22;7138;49.246;9.100;2022-10-16T09:33:06;18.80;99.90
14119;DHT22;7138;49.246;9.100;2022-10-16T09:35:37;18.80;99.90
14119;DHT22;7138;49.246;9.100;2022-10-16T09:38:05;19.00;99.90
14119;DHT22;7138;49.246;9.100;2022-10-16T09:40:34;19.30;99.90
14119;DHT22;7138;49.246;9.100;2022-10-16T09:43:11;19.40;99.90
14119;DHT22;7138;49.246;9.100;2022-10-16T09:45:54;19.40;99.90
14119;DHT22;7138;49.246;9.100;2022-10-16T09:48:25;19.50;99.90
14119;DHT22;7138;49.246;9.100;2022-10-16T09:50:57;19.70;99.90
14119;DHT22;7138;49.246;9.100;2022-10-16T09:53:37;19.90;99.90
14119;DHT22;7138;49.246;9.100;2022-10-16T09:56:05;19.90;99.90
14119;DHT22;7138;49.246;9.100;2022-10-16T09:58:32;19.80;99.90
14119;DHT22;7138;49.246;9.100;2022-10-16T10:00:59;19.70;99.90
14119;DHT22;7138;49.246;9.100;2022-10-16T10:03:35;19.50;99.90
14119;DHT22;7138;49.246;9.100;2022-10-16T10:06:15;19.50;99.90
14119;DHT22;7138;49.246;9.100;2022-10-16T10:08:55;19.80;99.90
14119;DHT22;7138;49.246;9.100;2022-10-16T10:11:41;20.30;99.90
14119;DHT22;7138;49.246;9.100;2022-10-16T10:14:20;20.50;99.90
14119;DHT22;7138;49.246;9.100;2022-10-16T10:16:48;21.00;99.90
14119;DHT22;7138;49.246;9.100;2022-10-16T10:19:18;21.30;99.90
14119;DHT22;7138;49.246;9.100;2022-10-16T10:21:47;21.30;99.90
14119;DHT22;7138;49.246;9.100;2022-10-16T10:24:14;21.30;99.90
14119;DHT22;7138;49.246;9.100;2022-10-16T10:26:49;21.70;99.90
14119;DHT22;7138;49.246;9.100;2022-10-16T10:29:31;21.90;99.90
14119;DHT22;7138;49.246;9.100;2022-10-16T10:32:19;22.00;99.90
14119;DHT22;7138;49.246;9.100;2022-10-16T10:35:04;22.20;99.90
14119;DHT22;7138;49.246;9.100;2022-10-16T10:37:57;22.20;99.90
14119;DHT22;7138;49.246;9.100;2022-10-16T10:40:40;21.90;99.90
14119;DHT22;7138;49.246;9.100;2022-10-16T10:43:26;21.70;99.90
14119;DHT22;7138;49.246;9.100;2022-10-16T10:46:05;21.40;99.90
14119;DHT22;7138;49.246;9.100;2022-10-16T10:48:57;21.10;99.90
14119;DHT22;7138;49.246;9.100;2022-10-16T10:51:43;21.00;99.90
14119;DHT22;7138;49.246;9.100;2022-10-16T10:54:20;20.80;99.90
14119;DHT22;7138;49.246;9.100;2022-10-16T10:56:57;20.60;99.90
14119;DHT22;7138;49.246;9.100;2022-10-16T10:59:37;20.60;99.90
14119;DHT22;7138;49.246;9.100;2022-10-16T11:02:19;20.90;99.90
14119;DHT22;7138;49.246;9.100;2022-10-16T11:05:10;21.20;99.90
14119;DHT22;7138;49.246;9.100;2022-10-16T11:08:00;21.80;99.90
14119;DHT22;7138;49.246;9.100;2022-10-16T11:10:38;21.80;99.90
14119;DHT22;7138;49.246;9.100;2022-10-16T11:13:20;22.10;99.90
14119;DHT22;7138;49.246;9.100;2022-10-16T11:15:53;22.20;99.90
14119;DHT22;7138;49.246;9.100;2022-10-16T11:18:29;21.90;99.90
14119;DHT22;7138;49.246;9.100;2022-10-16T11:21:02;22.20;99.90
14119;DHT22;7138;49.246;9.100;2022-10-16T11:23:37;22.50;99.90
14119;DHT22;7138;49.246;9.100;2022-10-16T11:26:13;22.60;99.90
14119;DHT22;7138;49.246;9.100;2022-10-16T11:28:45;22.70;99.90
14119;DHT22;7138;49.246;9.100;2022-10-16T11:31:18;22.40;99.90
14119;DHT22;7138;49.246;9.100;2022-10-16T11:33:57;22.70;99.90
14119;DHT22;7138;49.246;9.100;2022-10-16T11:36:34;23.10;99.90
14119;DHT22;7138;49.246;9.100;2022-10-16T11:39:16;22.90;99.90
14119;DHT22;7138;49.246;9.100;2022-10-16T11:41:49;23.00;99.90
14119;DHT22;7138;49.246;9.100;2022-10-16T11:44:34;22.90;99.90
14119;DHT22;7138;49.246;9.100;2022-10-16T11:47:31;22.90;99.90
14119;DHT22;7138;49.246;9.100;2022-10-16T11:50:03;22.90;99.90
14119;DHT22;7138;49.246;9.100;2022-10-16T11:52:42;22.70;99.90
14119;DHT22;7138;49.246;9.100;2022-10-16T11:55:17;22.70;99.90
14119;DHT22;7138;49.246;9.100;2022-10-16T11:57:51;22.60;99.90
14119;DHT22;7138;49.246;9.100;2022-10-16T12:00:23;22.70;99.90
14119;DHT22;7138;49.246;9.100;2022-10-16T12:02:59;22.80;99.90
14119;DHT22;7138;49.246;9.100;2022-10-16T12:05:40;22.30;99.90
14119;DHT22;7138;49.246;9.100;2022-10-16T12:08:21;21.80;99.90
14119;DHT22;7138;49.246;9.100;2022-10-16T12:10:48;21.80;99.90
14119;DHT22;7138;49.246;9.100;2022-10-16T12:13:31;21.90;99.90
14119;DHT22;7138;49.246;9.100;2022-10-16T12:16:07;22.30;99.90
14119;DHT22;7138;49.246;9.100;2022-10-16T12:18:46;22.30;99.90
14119;DHT22;7138;49.246;9.100;2022-10-16T12:21:15;22.30;99.90
14119;DHT22;7138;49.246;9.100;2022-10-16T12:23:48;22.20;99.90
14119;DHT22;7138;49.246;9.100;2022-10-16T12:26:25;22.30;99.90
14119;DHT22;7138;49.246;9.100;2022-10-16T12:28:52;22.10;99.90
14119;DHT22;7138;49.246;9.100;2022-10-16T12:31:18;21.90;99.90
14119;DHT22;7138;49.246;9.100;2022-10-16T12:33:55;21.70;99.90
14119;DHT22;7138;49.246;9.100;2022-10-16T12:36:28;21.60;99.90
14119;DHT22;7138;49.246;9.100;2022-10-16T12:38:56;21.50;99.90
14119;DHT22;7138;49.246;9.100;2022-10-16T12:41:28;21.60;99.90
14119;DHT22;7138;49.246;9.100;2022-10-16T12:43:56;21.70;99.90
14119;DHT22;7138;49.246;9.100;2022-10-16T12:46:38;21.60;99.90
14119;DHT22;7138;49.246;9.100;2022-10-16T12:49:18;21.70;99.90
14119;DHT22;7138;49.246;9.100;2022-10-16T12:51:49;22.00;99.90
14119;DHT22;7138;49.246;9.100;2022-10-16T12:54:17;22.30;99.90
14119;DHT22;7138;49.246;9.100;2022-10-16T12:57:03;22.70;99.90
14119;DHT22;7138;49.246;9.100;2022-10-16T12:59:41;22.90;99.90
14119;DHT22;7138;49.246;9.100;2022-10-16T13:02:47;22.70;99.90
14119;DHT22;7138;49.246;9.100;2022-10-16T13:05:32;22.30;99.90
14119;DHT22;7138;49.246;9.100;2022-10-16T13:08:19;22.00;99.90
14119;DHT22;7138;49.246;9.100;2022-10-16T13:11:01;21.80;99.90
14119;DHT22;7138;49.246;9.100;2022-10-16T13:13:48;21.50;99.90
14119;DHT22;7138;49.246;9.100;2022-10-16T13:16:27;21.50;99.90
14119;DHT22;7138;49.246;9.100;2022-10-16T13:19:14;21.40;99.90
14119;DHT22;7138;49.246;9.100;2022-10-16T13:21:56;21.30;99.90
14119;DHT22;7138;49.246;9.100;2022-10-16T13:24:43;21.30;99.90
14119;DHT22;7138;49.246;9.100;2022-10-16T13:27:23;21.30;99.90
14119;DHT22;7138;49.246;9.100;2022-10-16T13:30:08;21.30;99.90
14119;DHT22;7138;49.246;9.100;2022-10-16T13:32:39;21.20;99.90
14119;DHT22;7138;49.246;9.100;2022-10-16T13:35:19;21.20;99.90
14119;DHT22;7138;49.246;9.100;2022-10-16T13:37:48;21.10;99.90
14119;DHT22;7138;49.246;9.100;2022-10-16T13:40:19;21.00;99.90
14119;DHT22;7138;49.246;9.100;2022-10-16T13:42:46;21.00;99.90
14119;DHT22;7138;49.246;9.100;2022-10-16T13:45:22;20.90;99.90
14119;DHT22;7138;49.246;9.100;2022-10-16T13:48:00;20.90;99.90
14119;DHT22;7138;49.246;9.100;2022-10-16T13:50:27;20.70;99.90
14119;DHT22;7138;49.246;9.100;2022-10-16T13:53:03;20.70;99.90
14119;DHT22;7138;49.246;9.100;2022-10-16T13:55:31;20.70;99.90
14119;DHT22;7138;49.246;9.100;2022-10-16T13:58:05;20.70;99.90
14119;DHT22;7138;49.246;9.100;2022-10-16T14:00:34;20.70;99.90
14119;DHT22;7138;49.246;9.100;2022-10-16T14:03:02;20.70;99.90
14119;DHT22;7138;49.246;9.100;2022-10-16T14:05:30;20.70;99.90
14119;DHT22;7138;49.246;9.100;2022-10-16T14:07:56;20.70;99.90
14119;DHT22;7138;49.246;9.100;2022-10-16T14:10:25;20.70;99.90
14119;DHT22;7138;49.246;9.100;2022-10-16T14:12:57;20.60;99.90
14119;DHT22;7138;49.246;9.100;2022-10-16T14:15:25;20.60;99.90
14119;DHT22;7138;49.246;9.100;2022-10-16T14:17:53;20.60;99.90
14119;DHT22;7138;49.246;9.100;2022-10-16T14:20:24;20.50;99.90
14119;DHT22;7138;49.246;9.100;2022-10-16T14:23:00;20.50;99.90
14119;DHT22;7138;49.246;9.100;2022-10-16T14:25:29;20.50;99.90
14119;DHT22;7138;49.246;9.100;2022-10-16T14:27:58;20.50;99.90
14119;DHT22;7138;49.246;9.100;2022-10-16T14:30:26;20.40;99.90
14119;DHT22;7138;49.246;9.100;2022-10-16T14:32:56;20.40;99.90
14119;DHT22;7138;49.246;9.100;2022-10-16T14:35:25;20.40;99.90
14119;DHT22;7138;49.246;9.100;2022-10-16T14:37:54;20.40;99.90
14119;DHT22;7138;49.246;9.100;2022-10-16T14:40:23;20.40;99.90
14119;DHT22;7138;49.246;9.100;2022-10-16T14:42:51;20.40;99.90
14119;DHT22;7138;49.246;9.100;2022-10-16T14:45:20;20.30;99.90
14119;DHT22;7138;49.246;9.100;2022-10-16T14:47:49;20.30;99.90
14119;DHT22;7138;49.246;9.100;2022-10-16T14:50:19;20.30;99.90
14119;DHT22;7138;49.246;9.100;2022-10-16T14:52:45;20.40;99.90
14119;DHT22;7138;49.246;9.100;2022-10-16T14:55:11;20.40;99.90
14119;DHT22;7138;49.246;9.100;2022-10-16T14:57:38;20.30;99.90
14119;DHT22;7138;49.246;9.100;2022-10-16T15:00:15;20.20;99.90
14119;DHT22;7138;49.246;9.100;2022-10-16T15:02:43;20.20;99.90
14119;DHT22;7138;49.246;9.100;2022-10-16T15:05:15;20.10;99.90
14119;DHT22;7138;49.246;9.100;2022-10-16T15:07:44;20.10;99.90
14119;DHT22;7138;49.246;9.100;2022-10-16T15:10:11;20.10;99.90
14119;DHT22;7138;49.246;9.100;2022-10-16T15:12:37;20.00;99.90
14119;DHT22;7138;49.246;9.100;2022-10-16T15:15:26;20.00;99.90
14119;DHT22;7138;49.246;9.100;2022-10-16T15:17:58;20.00;99.90
14119;DHT22;7138;49.246;9.100;2022-10-16T15:20:26;20.00;99.90
14119;DHT22;7138;49.246;9.100;2022-10-16T15:22:55;20.10;99.90
14119;DHT22;7138;49.246;9.100;2022-10-16T15:25:34;20.10;99.90
14119;DHT22;7138;49.246;9.100;2022-10-16T15:28:04;20.20;99.90
14119;DHT22;7138;49.246;9.100;2022-10-16T15:30:30;20.30;99.90
14119;DHT22;7138;49.246;9.100;2022-10-16T15:32:56;20.40;99.90
14119;DHT22;7138;49.246;9.100;2022-10-16T15:35:22;20.50;99.90
14119;DHT22;7138;49.246;9.100;2022-10-16T15:37:48;20.50;99.90
14119;DHT22;7138;49.246;9.100;2022-10-16T15:40:16;20.50;99.90
14119;DHT22;7138;49.246;9.100;2022-10-16T15:42:43;20.50;99.90
14119;DHT22;7138;49.246;9.100;2022-10-16T15:45:09;20.30;99.90
14119;DHT22;7138;49.246;9.100;2022-10-16T15:47:37;20.00;99.90
14119;DHT22;7138;49.246;9.100;2022-10-16T15:50:03;19.90;99.90
14119;DHT22;7138;49.246;9.100;2022-10-16T15:52:29;19.80;99.90
14119;DHT22;7138;49.246;9.100;2022-10-16T15:54:57;19.80;99.90
14119;DHT22;7138;49.246;9.100;2022-10-16T15:57:24;19.60;99.90
14119;DHT22;7138;49.246;9.100;2022-10-16T15:59:51;19.60;99.90
14119;DHT22;7138;49.246;9.100;2022-10-16T16:02:16;19.40;99.90
14119;DHT22;7138;49.246;9.100;2022-10-16T16:04:42;19.30;99.90
14119;DHT22;7138;49.246;9.100;2022-10-16T16:07:08;19.30;99.90
14119;DHT22;7138;49.246;9.100;2022-10-16T16:09:34;19.10;99.90
14119;DHT22;7138;49.246;9.100;2022-10-16T16:12:00;18.90;99.90